Time;durP1;ratioP1;P1;durP2;ratioP2;P2;SDS_P1;SDS_P2;PMS_P1;PMS_P2;Temp;Humidity;BMP_temperature;BMP_pressure;BME280_temperature;BME280_humidity;BME280_pressure;Samples;Min_cycle;Max_cycle;Signal;HPM_P1;HPM_P2
2021/09/20 00:00:10;;;;;;;11.43;6.07;;;;;20.00;100318.00;;;;5065965;28;20048;-74
2021/09/20 00:02:40;;;;;;;558.67;131.10;;;;;19.90;100315.00;;;;5064309;28;20144;-78
2021/09/20 00:05:10;;;;;;;2.38;2.17;;;;;19.90;100330.00;;;;5065592;28;20055;-80
2021/09/20 00:07:40;;;;;;;7.03;2.08;;;;;19.90;100326.00;;;;5065438;28;20123;-82
2021/09/20 00:10:11;;;;;;;4.15;2.25;;;;;19.90;100350.00;;;;5064743;28;20102;-80
2021/09/20 00:12:40;;;;;;;3.33;3.13;;;;;20.00;100351.00;;;;5065683;28;20374;-77
2021/09/20 00:15:11;;;;;;;4.72;2.20;;;;;20.00;100367.00;;;;5065230;28;20049;-80
2021/09/20 00:17:41;;;;;;;395.45;182.80;;;;;20.00;100355.00;;;;5065395;28;20050;-78
2021/09/20 00:20:12;;;;;;;3.42;2.13;;;;;20.00;100362.00;;;;5065372;28;20392;-81
2021/09/20 00:22:43;;;;;;;6.97;2.53;;;;;20.00;100366.00;;;;5065005;28;20033;-80
2021/09/20 00:25:13;;;;;;;4.35;1.90;;;;;20.00;100362.00;;;;5065350;28;20072;-78
2021/09/20 00:27:42;;;;;;;4.30;3.13;;;;;20.00;100371.00;;;;5065008;28;20057;-81
2021/09/20 00:30:12;;;;;;;24.95;16.30;;;;;20.10;100364.00;;;;5065407;28;20570;-77
2021/09/20 00:32:42;;;;;;;868.25;324.70;;;;;20.10;100355.00;;;;5066078;28;20507;-80
2021/09/20 00:35:11;;;;;;;187.48;16.42;;;;;20.20;100341.00;;;;5065249;28;20055;-77
2021/09/20 00:37:41;;;;;;;1.30;1.20;;;;;20.20;100331.00;;;;5065578;28;20099;-80
2021/09/20 00:40:11;;;;;;;66.03;20.48;;;;;20.20;100344.00;;;;5063803;28;20466;-76
2021/09/20 00:42:41;;;;;;;0.23;0.17;;;;;20.20;100336.00;;;;5065874;28;20146;-77
2021/09/20 00:45:11;;;;;;;432.48;122.30;;;;;20.20;100315.00;;;;5065613;28;20102;-76
2021/09/20 00:47:41;;;;;;;9.35;1.83;;;;;20.20;100302.00;;;;5063793;28;20076;-75
2021/09/20 00:50:11;;;;;;;1999.90;999.90;;;;;20.30;100315.00;;;;5065300;28;20054;-76
2021/09/20 00:52:40;;;;;;;100.63;92.88;;;;;20.30;100335.00;;;;5068189;28;20079;-77
2021/09/20 00:55:11;;;;;;;0.43;0.40;;;;;20.20;100345.00;;;;5068626;28;20508;-79
2021/09/20 00:57:42;;;;;;;1.20;1.10;;;;;20.20;100342.00;;;;5067828;28;20131;-81
2021/09/20 01:00:13;;;;;;;1.45;1.33;;;;;20.20;100351.00;;;;5069351;28;20037;-74
2021/09/20 01:02:43;;;;;;;4.43;3.20;;;;;20.10;100362.00;;;;5066648;28;20082;-79
2021/09/20 01:05:14;;;;;;;121.17;15.53;;;;;20.10;100350.00;;;;5067949;28;20134;-77
2021/09/20 01:07:43;;;;;;;1.67;1.58;;;;;20.10;100353.00;;;;5067706;28;20491;-79
2021/09/20 01:10:13;;;;;;;3.58;1.00;;;;;20.10;100336.00;;;;5066281;28;20044;-78
2021/09/20 01:12:42;;;;;;;0.93;0.93;;;;;20.10;100304.00;;;;5065414;28;20507;-79
2021/09/20 01:15:13;;;;;;;0.80;0.80;;;;;20.00;100286.00;;;;5068255;28;20416;-78
2021/09/20 01:17:42;;;;;;;2.78;1.33;;;;;20.00;100305.00;;;;5068189;28;20049;-78
2021/09/20 01:20:13;;;;;;;39.35;35.92;;;;;20.00;100295.00;;;;5069393;28;20052;-77
2021/09/20 01:22:45;;;;;;;77.47;56.67;;;;;19.90;100286.00;;;;5068729;28;20053;-77
2021/09/20 01:25:15;;;;;;;302.95;50.47;;;;;19.90;100304.00;;;;5068798;28;20078;-81
2021/09/20 01:27:45;;;;;;;5.53;1.70;;;;;19.80;100308.00;;;;5067163;28;20067;-75
2021/09/20 01:30:14;;;;;;;0.50;0.40;;;;;19.80;100288.00;;;;5068420;28;20079;-78
2021/09/20 01:32:46;;;;;;;2.47;1.30;;;;;19.80;100289.00;;;;5068729;28;20047;-76
2021/09/20 01:35:22;;;;;;;7.50;1.65;;;;;19.80;100294.00;;;;5068428;28;20044;-78
2021/09/20 01:37:52;;;;;;;2.58;1.67;;;;;19.80;100280.00;;;;5068067;28;20044;-76
2021/09/20 01:40:23;;;;;;;3.20;2.20;;;;;19.80;100248.00;;;;5067544;28;20076;-78
2021/09/20 01:42:52;;;;;;;53.93;17.67;;;;;19.80;100260.00;;;;5068323;28;20079;-77
2021/09/20 01:45:24;;;;;;;69.05;33.45;;;;;19.80;100268.00;;;;5068836;28;20052;-76
2021/09/20 01:47:55;;;;;;;2.03;1.10;;;;;19.90;100282.00;;;;5067574;28;20511;-78
2021/09/20 01:50:24;;;;;;;0.65;0.60;;;;;19.80;100270.00;;;;5068038;28;20048;-83
2021/09/20 01:52:54;;;;;;;1.27;0.60;;;;;19.90;100272.00;;;;5068032;28;20419;-79
2021/09/20 01:55:24;;;;;;;1.33;1.23;;;;;19.90;100251.00;;;;5067705;28;20048;-81
2021/09/20 01:57:55;;;;;;;1.13;0.50;;;;;19.80;100258.00;;;;5067523;28;20098;-81
2021/09/20 02:00:24;;;;;;;2.55;0.50;;;;;19.70;100256.00;;;;5067665;28;20086;-78
2021/09/20 02:02:53;;;;;;;0.55;0.30;;;;;19.70;100263.00;;;;5067496;28;20507;-75
2021/09/20 02:05:23;;;;;;;1.27;0.70;;;;;19.60;100259.00;;;;5067295;28;20434;-76
2021/09/20 02:07:53;;;;;;;2.85;0.70;;;;;19.40;100267.00;;;;5067929;28;20136;-77
2021/09/20 02:10:22;;;;;;;2.53;2.35;;;;;19.40;100243.00;;;;5068337;28;20453;-75
2021/09/20 02:12:52;;;;;;;607.03;132.10;;;;;19.50;100255.00;;;;5066379;28;20577;-77
2021/09/20 02:15:21;;;;;;;220.07;26.33;;;;;19.40;100259.00;;;;5066894;28;20159;-78
2021/09/20 02:17:51;;;;;;;24.30;14.63;;;;;19.30;100247.00;;;;5066663;28;20174;-76
2021/09/20 02:20:20;;;;;;;306.95;54.17;;;;;19.30;100238.00;;;;5067272;28;20672;-75
2021/09/20 02:22:50;;;;;;;4.55;1.63;;;;;19.30;100242.00;;;;5067345;28;20491;-75
2021/09/20 02:25:21;;;;;;;3.05;1.73;;;;;19.50;100229.00;;;;5066910;28;20106;-73
2021/09/20 02:27:51;;;;;;;3.13;1.27;;;;;19.60;100239.00;;;;5067617;28;20495;-79
2021/09/20 02:30:20;;;;;;;3.63;3.30;;;;;19.60;100247.00;;;;5067393;28;20115;-73
2021/09/20 02:32:50;;;;;;;3.60;1.48;;;;;19.80;100233.00;;;;5066865;28;20041;-75
2021/09/20 02:35:19;;;;;;;45.58;7.88;;;;;19.90;100242.00;;;;5066359;28;20135;-75
2021/09/20 02:37:49;;;;;;;0.77;0.50;;;;;20.10;100218.00;;;;5066707;28;20123;-76
2021/09/20 02:40:18;;;;;;;0.73;0.30;;;;;20.20;100225.00;;;;5065379;28;20056;-75
2021/09/20 02:42:48;;;;;;;0.20;0.20;;;;;20.40;100220.00;;;;5066778;28;20060;-80
2021/09/20 02:45:18;;;;;;;1.98;1.05;;;;;20.40;100234.00;;;;5066438;28;20507;-81
2021/09/20 02:47:47;;;;;;;2.25;1.20;;;;;20.20;100219.00;;;;5067329;28;20053;-81
2021/09/20 02:50:18;;;;;;;1.73;0.90;;;;;20.30;100210.00;;;;5066627;28;20045;-76
2021/09/20 02:52:48;;;;;;;243.13;40.90;;;;;20.20;100192.00;;;;5067306;28;20048;-79
2021/09/20 02:55:17;;;;;;;68.35;19.58;;;;;20.10;100218.00;;;;5066539;28;20076;-77
2021/09/20 02:57:47;;;;;;;22.30;18.17;;;;;20.20;100222.00;;;;5066559;28;20110;-75
2021/09/20 03:00:16;;;;;;;22.15;20.50;;;;;20.10;100213.00;;;;5066831;28;20049;-76
2021/09/20 03:02:46;;;;;;;46.47;43.50;;;;;20.20;100213.00;;;;5066589;28;20072;-80
2021/09/20 03:05:16;;;;;;;75.18;70.10;;;;;20.30;100197.00;;;;5066466;28;20432;-76
2021/09/20 03:07:45;;;;;;;3.40;3.22;;;;;20.20;100189.00;;;;5066200;28;20076;-75
2021/09/20 03:10:15;;;;;;;11.07;2.80;;;;;20.10;100203.00;;;;5066592;28;20075;-78
2021/09/20 03:12:44;;;;;;;20.17;18.73;;;;;20.20;100180.00;;;;5065268;28;20052;-77
2021/09/20 03:15:14;;;;;;;90.28;84.28;;;;;20.40;100193.00;;;;5066310;28;20121;-80
2021/09/20 03:17:43;;;;;;;17.27;16.17;;;;;20.40;100189.00;;;;5066872;28;20047;-80
2021/09/20 03:20:13;;;;;;;55.75;7.65;;;;;20.50;100173.00;;;;5065900;28;20044;-78
2021/09/20 03:22:42;;;;;;;5.25;4.78;;;;;20.50;100186.00;;;;5066208;28;20078;-76
2021/09/20 03:25:12;;;;;;;118.97;25.05;;;;;20.50;100180.00;;;;5065893;28;20095;-77
2021/09/20 03:27:42;;;;;;;3.08;1.08;;;;;20.50;100176.00;;;;5065786;28;20080;-79
2021/09/20 03:30:13;;;;;;;3.20;2.15;;;;;20.50;100164.00;;;;5066315;28;20124;-77
2021/09/20 03:32:44;;;;;;;4.25;2.85;;;;;20.50;100170.00;;;;5066024;28;20059;-79
2021/09/20 03:35:16;;;;;;;106.18;85.05;;;;;20.40;100174.00;;;;5065722;28;20040;-76
2021/09/20 03:37:47;;;;;;;101.35;94.43;;;;;20.50;100173.00;;;;5065827;28;20174;-81
2021/09/20 03:40:18;;;;;;;2.72;2.53;;;;;20.70;100169.00;;;;5066499;28;20418;-75
2021/09/20 03:42:49;;;;;;;30.02;27.63;;;;;20.60;100162.00;;;;5065838;28;20048;-77
2021/09/20 03:45:18;;;;;;;3.40;3.10;;;;;20.70;100158.00;;;;5066060;28;20075;-78
2021/09/20 03:47:48;;;;;;;7.70;5.40;;;;;20.50;100164.00;;;;5064533;28;20052;-76
2021/09/20 03:50:18;;;;;;;11.10;8.35;;;;;20.90;100152.00;;;;5065904;28;20844;-77
2021/09/20 03:52:48;;;;;;;3.97;1.50;;;;;20.80;100136.00;;;;5066388;28;20045;-76
2021/09/20 03:55:17;;;;;;;0.22;0.22;;;;;20.90;100135.00;;;;5066349;28;20090;-76
2021/09/20 03:57:47;;;;;;;3.35;3.05;;;;;20.90;100142.00;;;;5065816;28;20055;-77
2021/09/20 04:00:16;;;;;;;3.30;3.00;;;;;21.10;100127.00;;;;5066693;28;20113;-78
2021/09/20 04:02:46;;;;;;;4.03;3.72;;;;;21.00;100120.00;;;;5066230;28;20109;-77
2021/09/20 04:05:20;;;;;;;4.25;3.10;;;;;21.10;100117.00;;;;5064696;28;20076;-77
2021/09/20 04:07:49;;;;;;;3.22;2.80;;;;;21.10;100121.00;;;;5065580;28;20040;-76
2021/09/20 04:10:19;;;;;;;3.13;1.92;;;;;21.10;100109.00;;;;5065644;28;20127;-80
2021/09/20 04:12:48;;;;;;;3.03;2.47;;;;;21.10;100113.00;;;;5065933;28;20094;-75
2021/09/20 04:15:18;;;;;;;7.03;3.95;;;;;21.10;100110.00;;;;5066092;28;20051;-77
2021/09/20 04:17:48;;;;;;;7.28;6.03;;;;;21.20;100108.00;;;;5066386;28;20052;-74
2021/09/20 04:20:17;;;;;;;14.98;11.18;;;;;21.30;100084.00;;;;5065810;28;20421;-76
2021/09/20 04:22:48;;;;;;;4.82;4.25;;;;;21.20;100082.00;;;;5065674;28;20099;-80
2021/09/20 04:25:17;;;;;;;2.25;1.55;;;;;21.10;100079.00;;;;5065543;28;20068;-78
2021/09/20 04:27:47;;;;;;;3.65;2.28;;;;;21.10;100064.00;;;;5068828;28;20080;-75
2021/09/20 04:30:16;;;;;;;1.77;1.65;;;;;21.00;100075.00;;;;5068198;28;20083;-76
2021/09/20 04:32:46;;;;;;;0.95;0.95;;;;;21.10;100064.00;;;;5069936;28;20491;-75
2021/09/20 04:35:15;;;;;;;187.05;29.75;;;;;21.10;100039.00;;;;5068301;28;20124;-76
2021/09/20 04:37:44;;;;;;;2.45;1.15;;;;;21.00;100046.00;;;;5069219;28;20098;-78
2021/09/20 04:40:14;;;;;;;2.50;2.10;;;;;21.00;100038.00;;;;5069580;28;20072;-77
2021/09/20 04:42:44;;;;;;;1.65;0.30;;;;;21.00;100027.00;;;;5068096;28;20045;-75
2021/09/20 04:45:13;;;;;;;4.05;2.20;;;;;21.10;100021.00;;;;5069009;28;20044;-79
2021/09/20 04:47:43;;;;;;;2.55;2.35;;;;;21.10;100013.00;;;;5068783;28;20115;-79
2021/09/20 04:50:14;;;;;;;8.35;7.72;;;;;21.20;100003.00;;;;5068369;28;20139;-75
2021/09/20 04:52:43;;;;;;;13.50;12.23;;;;;21.40;99992.00;;;;5068734;28;20128;-80
2021/09/20 04:55:13;;;;;;;15.55;14.35;;;;;21.30;99998.00;;;;5068942;28;20040;-77
2021/09/20 04:57:42;;;;;;;12.05;10.98;;;;;21.40;99978.00;;;;5068937;28;20782;-79
2021/09/20 05:00:13;;;;;;;27.85;25.02;;;;;21.10;99964.00;;;;5068916;28;20525;-82
2021/09/20 05:02:43;;;;;;;127.95;59.45;;;;;21.20;99963.00;;;;5069581;28;20036;-80
2021/09/20 05:05:13;;;;;;;41.00;20.45;;;;;21.40;99939.00;;;;5069390;28;20044;-80
2021/09/20 05:07:42;;;;;;;2.50;2.30;;;;;21.20;99941.00;;;;5068662;28;20044;-78
2021/09/20 05:10:12;;;;;;;0.90;0.65;;;;;21.30;99934.00;;;;5069086;28;20055;-80
2021/09/20 05:12:42;;;;;;;3.28;3.08;;;;;21.30;99917.00;;;;5068676;28;20539;-81
2021/09/20 05:15:12;;;;;;;0.65;0.65;;;;;21.30;99891.00;;;;5067986;28;20574;-78
2021/09/20 05:17:43;;;;;;;8.93;8.40;;;;;21.40;99882.00;;;;5068770;28;20122;-76
2021/09/20 05:20:15;;;;;;;1.20;0.80;;;;;21.40;99890.00;;;;5068428;28;20105;-78
2021/09/20 05:22:45;;;;;;;4.18;1.70;;;;;21.30;99901.00;;;;5068236;28;20047;-74
2021/09/20 05:25:23;;;;;;;10.15;9.50;;;;;21.10;99883.00;;;;5067877;28;20120;-81
2021/09/20 05:27:53;;;;;;;2.00;1.30;;;;;21.10;99892.00;;;;5067891;28;20061;-81
2021/09/20 05:30:22;;;;;;;1.80;1.35;;;;;21.10;99870.00;;;;5050675;28;20053;-77
2021/09/20 05:32:52;;;;;;;2.38;1.90;;;;;21.00;99869.00;;;;5068021;28;20590;-82
2021/09/20 05:35:21;;;;;;;4.55;2.30;;;;;21.00;99857.00;;;;5068148;28;20052;-77
2021/09/20 05:37:52;;;;;;;2.72;1.88;;;;;20.80;99857.00;;;;5067161;28;20381;-79
2021/09/20 05:40:23;;;;;;;0.68;0.60;;;;;20.90;99849.00;;;;5068163;28;20132;-84
2021/09/20 05:42:56;;;;;;;3.47;1.37;;;;;20.90;99840.00;;;;5068435;28;20056;-83
2021/09/20 05:45:27;;;;;;;0.70;0.70;;;;;20.90;99831.00;;;;5066517;28;20059;-75
2021/09/20 05:47:58;;;;;;;4.18;1.50;;;;;20.90;99826.00;;;;5067997;28;20040;-77
2021/09/20 05:50:28;;;;;;;1.67;0.80;;;;;20.80;99821.00;;;;5067935;28;20045;-81
2021/09/20 05:52:58;;;;;;;1.65;1.10;;;;;20.70;99818.00;;;;5067740;28;20472;-80
2021/09/20 05:55:27;;;;;;;2.10;1.00;;;;;20.50;99811.00;;;;5068015;28;20415;-81
2021/09/20 05:57:57;;;;;;;2.00;1.85;;;;;21.00;99808.00;;;;5067772;28;20040;-77
2021/09/20 06:00:27;;;;;;;1.75;0.90;;;;;20.80;99797.00;;;;5067805;28;20517;-80
2021/09/20 06:02:57;;;;;;;2.45;2.30;;;;;20.70;99795.00;;;;5066258;28;20051;-80
2021/09/20 06:05:28;;;;;;;3.22;2.92;;;;;20.50;99797.00;;;;5067560;28;20055;-82
2021/09/20 06:07:58;;;;;;;1.50;1.40;;;;;20.50;99786.00;;;;5068067;28;21063;-76
2021/09/20 06:10:27;;;;;;;3.78;3.53;;;;;20.40;99798.00;;;;5067802;28;20114;-82
2021/09/20 06:12:57;;;;;;;5.88;5.38;;;;;20.30;99787.00;;;;5067356;28;20507;-83
2021/09/20 06:15:26;;;;;;;2.35;2.15;;;;;20.20;99781.00;;;;5066794;28;20080;-78
2021/09/20 06:17:57;;;;;;;5.20;4.70;;;;;20.20;99779.00;;;;5066316;28;20056;-76
2021/09/20 06:20:26;;;;;;;7.53;6.27;;;;;20.00;99770.00;;;;5068386;28;20055;-74
2021/09/20 06:22:56;;;;;;;156.90;79.07;;;;;19.90;99765.00;;;;5067516;28;20107;-81
2021/09/20 06:25:26;;;;;;;147.23;114.15;;;;;19.80;99759.00;;;;5067413;28;20052;-78
2021/09/20 06:27:56;;;;;;;109.07;35.90;;;;;19.60;99725.00;;;;5067049;28;20048;-78
2021/09/20 06:30:26;;;;;;;0.00;0.00;;;;;19.40;99730.00;;;;5067009;28;20388;-78
2021/09/20 06:32:55;;;;;;;8.13;6.47;;;;;19.40;99720.00;;;;5066875;28;20045;-79
2021/09/20 06:35:25;;;;;;;4.68;4.32;;;;;19.30;99718.00;;;;5067612;28;20040;-76
2021/09/20 06:37:54;;;;;;;0.35;0.32;;;;;19.30;99726.00;;;;5067431;28;20063;-79
2021/09/20 06:40:23;;;;;;;235.80;80.05;;;;;19.30;99715.00;;;;5066482;28;20410;-75
2021/09/20 06:42:53;;;;;;;2.92;2.72;;;;;19.20;99707.00;;;;5066656;28;20633;-81
2021/09/20 06:45:23;;;;;;;94.78;86.65;;;;;19.30;99718.00;;;;5066712;28;20431;-79
2021/09/20 06:47:52;;;;;;;3.25;2.53;;;;;19.30;99695.00;;;;5066524;28;20040;-79
2021/09/20 06:50:22;;;;;;;8.75;3.42;;;;;19.30;99696.00;;;;5065639;28;20039;-83
2021/09/20 06:52:51;;;;;;;6.50;3.45;;;;;19.20;99703.00;;;;5065963;28;20048;-80
2021/09/20 06:55:20;;;;;;;4.30;3.55;;;;;19.20;99707.00;;;;5065205;28;20139;-76
2021/09/20 06:57:53;;;;;;;21.77;19.48;;;;;19.30;99693.00;;;;5065953;28;20139;-77
2021/09/20 07:00:23;;;;;;;11.65;9.75;;;;;19.40;99687.00;;;;5066443;28;20044;-81
2021/09/20 07:02:52;;;;;;;5.97;4.10;;;;;19.40;99688.00;;;;5065920;28;20461;-74
2021/09/20 07:05:23;;;;;;;1.00;0.40;;;;;19.40;99670.00;;;;5066147;28;20045;-77
2021/09/20 07:07:53;;;;;;;5.27;3.50;;;;;20.00;99664.00;;;;5066591;28;20048;-80
2021/09/20 07:10:22;;;;;;;195.77;115.40;;;;;20.10;99661.00;;;;5065874;28;20089;-76
2021/09/20 07:12:59;;;;;;;2.08;1.80;;;;;19.90;99666.00;;;;5066407;28;20043;-82
2021/09/20 07:15:28;;;;;;;5.38;2.90;;;;;19.90;99661.00;;;;5066190;28;20835;-78
2021/09/20 07:17:58;;;;;;;3.65;3.35;;;;;19.90;99646.00;;;;5071968;28;20444;-76
2021/09/20 07:20:27;;;;;;;7.65;7.15;;;;;20.00;99654.00;;;;5076715;28;20139;-75
2021/09/20 07:22:57;;;;;;;5.68;3.80;;;;;20.30;99650.00;;;;5077993;28;20074;-78
2021/09/20 07:25:26;;;;;;;3.28;1.50;;;;;20.20;99666.00;;;;5078130;28;20041;-79
2021/09/20 07:27:56;;;;;;;5.07;3.30;;;;;20.20;99632.00;;;;5071785;28;20530;-80
2021/09/20 07:30:26;;;;;;;4.60;2.90;;;;;20.10;99646.00;;;;5064731;28;20102;-80
2021/09/20 07:32:55;;;;;;;6.07;3.00;;;;;20.10;99638.00;;;;5066505;28;20058;-81
2021/09/20 07:35:25;;;;;;;2.50;2.30;;;;;20.10;99648.00;;;;5065941;28;20041;-80
2021/09/20 07:37:56;;;;;;;5.50;3.08;;;;;20.20;99628.00;;;;5066539;28;20071;-79
2021/09/20 07:40:27;;;;;;;;;;;;;20.20;99631.00;;;;5066799;28;20158;-79
2021/09/20 07:42:59;;;;;;;4.60;3.30;;;;;20.10;99607.00;;;;5066328;28;19931;-81
2021/09/20 07:45:29;;;;;;;13.07;11.98;;;;;20.10;99601.00;;;;5066388;28;20090;-77
2021/09/20 07:47:59;;;;;;;189.07;24.17;;;;;20.00;99597.00;;;;5066009;28;20538;-82
2021/09/20 07:50:28;;;;;;;41.95;3.53;;;;;19.90;99610.00;;;;5065659;28;20047;-80
2021/09/20 07:52:58;;;;;;;0.60;0.45;;;;;19.80;99623.00;;;;5065810;28;20070;-80
2021/09/20 07:55:34;;;;;;;8.70;7.70;;;;;19.80;99609.00;;;;5065352;28;20048;-80
2021/09/20 07:58:08;;;;;;;0.28;0.28;;;;;19.90;99605.00;;;;5066281;28;20086;-78
2021/09/20 08:00:40;;;;;;;11.05;9.93;;;;;19.80;99615.00;;;;5067963;28;20106;-79
2021/09/20 08:03:10;;;;;;;5.95;3.00;;;;;19.90;99592.00;;;;5070094;28;20051;-76
2021/09/20 08:05:41;;;;;;;3.63;2.70;;;;;20.00;99600.00;;;;5070148;28;20029;-79
2021/09/20 08:08:11;;;;;;;2.92;2.03;;;;;20.00;99583.00;;;;5070024;28;20286;-80
2021/09/20 08:10:41;;;;;;;6.00;4.85;;;;;20.00;99599.00;;;;5069832;28;20052;-77
2021/09/20 08:13:10;;;;;;;6.90;5.65;;;;;19.90;99596.00;;;;5069651;28;20057;-77
2021/09/20 08:15:41;;;;;;;132.77;23.00;;;;;19.90;99609.00;;;;5069774;28;20052;-79
2021/09/20 08:18:12;;;;;;;4.43;3.88;;;;;19.90;99622.00;;;;5069935;28;20056;-78
2021/09/20 08:20:43;;;;;;;5.50;3.37;;;;;19.80;99629.00;;;;5069519;28;20083;-78
2021/09/20 08:23:14;;;;;;;0.40;0.30;;;;;19.80;99617.00;;;;5068242;28;20102;-79
2021/09/20 08:25:44;;;;;;;1.52;1.17;;;;;19.80;99617.00;;;;5069397;28;20057;-80
2021/09/20 08:28:13;;;;;;;7.68;5.35;;;;;19.80;99625.00;;;;5069642;28;20506;-78
2021/09/20 08:30:43;;;;;;;16.98;15.35;;;;;19.70;99624.00;;;;5069410;28;20049;-82
2021/09/20 08:33:12;;;;;;;10.65;6.47;;;;;19.70;99618.00;;;;5069135;28;20136;-75
2021/09/20 08:35:46;;;;;;;5.20;4.05;;;;;19.70;99607.00;;;;5068271;28;20514;-75
2021/09/20 08:38:16;;;;;;;8.10;6.10;;;;;19.60;99614.00;;;;5069159;28;20041;-83
2021/09/20 08:40:46;;;;;;;6.68;5.55;;;;;19.60;99594.00;;;;5069311;28;20048;-79
2021/09/20 08:43:15;;;;;;;7.85;6.82;;;;;19.60;99619.00;;;;5069270;28;20083;-76
2021/09/20 08:45:45;;;;;;;13.77;12.45;;;;;19.60;99598.00;;;;5068931;28;20040;-76
2021/09/20 08:48:14;;;;;;;6.68;4.75;;;;;19.50;99599.00;;;;5069550;28;20048;-81
2021/09/20 08:50:44;;;;;;;0.68;0.68;;;;;19.40;99615.00;;;;5069310;28;20055;-78
2021/09/20 08:53:13;;;;;;;6.22;2.30;;;;;19.30;99592.00;;;;5069495;28;20094;-80
2021/09/20 08:55:42;;;;;;;0.77;0.77;;;;;19.30;99589.00;;;;5068093;28;20055;-84
2021/09/20 08:58:12;;;;;;;3.33;2.60;;;;;19.40;99589.00;;;;5068346;28;20123;-78
2021/09/20 09:00:42;;;;;;;3.50;1.70;;;;;19.40;99602.00;;;;5068934;28;20471;-78
2021/09/20 09:03:11;;;;;;;7.22;2.25;;;;;19.40;99590.00;;;;5068403;28;20481;-80
2021/09/20 09:05:47;;;;;;;1.95;1.73;;;;;19.50;99598.00;;;;5068628;28;20041;-78
2021/09/20 09:08:20;;;;;;;6.30;3.10;;;;;19.50;99594.00;;;;5068621;28;20051;-78
2021/09/20 09:11:03;;;;;;;8.70;8.05;;;;;19.50;99569.00;;;;5068532;28;20075;-81
2021/09/20 09:13:47;;;;;;;4.97;4.60;;;;;19.50;99572.00;;;;5068222;28;20409;-79
2021/09/20 09:16:21;;;;;;;10.75;9.32;;;;;19.40;99607.00;;;;5068604;28;20072;-78
2021/09/20 09:19:03;;;;;;;2.72;2.63;;;;;19.50;99587.00;;;;5068138;28;20785;-80
2021/09/20 09:21:44;;;;;;;4.10;3.35;;;;;19.60;99599.00;;;;5068392;28;20079;-77
2021/09/20 09:24:20;;;;;;;10.73;8.63;;;;;19.50;99581.00;;;;5068338;28;20041;-76
2021/09/20 09:27:02;;;;;;;7.05;6.63;;;;;19.40;99579.00;;;;5066521;28;20592;-76
2021/09/20 09:29:33;;;;;;;0.10;0.10;;;;;19.50;99588.00;;;;5068552;28;20047;-78
2021/09/20 09:32:03;;;;;;;0.47;0.47;;;;;19.70;99576.00;;;;5068813;28;20162;-75
2021/09/20 09:34:34;;;;;;;0.00;0.00;;;;;19.70;99580.00;;;;5067589;28;20053;-78
2021/09/20 09:37:11;;;;;;;4.18;3.17;;;;;19.70;99576.00;;;;5068137;28;20041;-79
2021/09/20 09:39:44;;;;;;;0.82;0.55;;;;;19.70;99594.00;;;;5067472;28;20586;-82
2021/09/20 09:42:29;;;;;;;0.10;0.10;;;;;19.70;99592.00;;;;5068275;28;20040;-80
2021/09/20 09:45:38;;;;;;;0.10;0.03;;;;;19.70;99620.00;;;;5066253;28;20519;-77
2021/09/20 09:48:14;;;;;;;0.10;0.10;;;;;19.80;99659.00;;;;5066884;28;20060;-79
2021/09/20 09:50:59;;;;;;;2.45;1.20;;;;;19.90;99667.00;;;;5067640;28;20400;-81
2021/09/20 09:53:36;;;;;;;5.07;2.60;;;;;20.00;99647.00;;;;5068373;28;20135;-77
2021/09/20 09:56:32;;;;;;;1.25;0.90;;;;;20.00;99665.00;;;;5067629;28;20036;-79
2021/09/20 09:59:04;;;;;;;2.22;1.50;;;;;20.10;99641.00;;;;5066801;28;20064;-78
2021/09/20 10:01:37;;;;;;;4.05;1.80;;;;;20.10;99643.00;;;;5068207;28;20047;-79
2021/09/20 10:04:09;;;;;;;1.77;1.67;;;;;20.30;99666.00;;;;5068056;28;20036;-76
2021/09/20 10:06:42;;;;;;;2.15;1.90;;;;;20.50;99679.00;;;;5067398;28;20522;-76
2021/09/20 10:09:14;;;;;;;3.08;1.90;;;;;20.60;99662.00;;;;5067464;28;20385;-75
2021/09/20 10:11:47;;;;;;;3.70;3.40;;;;;20.80;99686.00;;;;5067663;28;20068;-80
2021/09/20 10:14:19;;;;;;;3.42;2.53;;;;;20.70;99689.00;;;;5066830;28;20123;-79
2021/09/20 10:16:55;;;;;;;9.02;8.38;;;;;20.60;99710.00;;;;5067573;28;20059;-77
2021/09/20 10:19:24;;;;;;;7.30;6.70;;;;;20.50;99704.00;;;;5067269;28;20037;-76
2021/09/20 10:21:54;;;;;;;6.43;5.95;;;;;20.40;99686.00;;;;5066731;28;20044;-80
2021/09/20 10:24:24;;;;;;;8.10;6.25;;;;;20.40;99694.00;;;;5067402;28;20048;-77
2021/09/20 10:26:53;;;;;;;13.07;5.47;;;;;20.50;99692.00;;;;5067086;28;20048;-76
2021/09/20 10:29:24;;;;;;;17.50;15.95;;;;;20.50;99698.00;;;;5067158;28;20040;-79
2021/09/20 10:31:55;;;;;;;11.27;9.38;;;;;20.60;99713.00;;;;5066106;28;20048;-76
2021/09/20 10:34:26;;;;;;;9.32;5.35;;;;;20.70;99751.00;;;;5067094;28;20094;-76
2021/09/20 10:37:04;;;;;;;12.40;11.20;;;;;21.30;99900.00;;;;5067116;28;20206;-79
2021/09/20 10:39:53;;;;;;;12.85;12.05;;;;;21.90;99855.00;;;;5065450;28;20063;-78
2021/09/20 10:42:46;;;;;;;4.40;2.08;;;;;21.90;99795.00;;;;5066944;28;20131;-75
2021/09/20 10:45:35;;;;;;;10.07;3.72;;;;;22.00;99860.00;;;;5067562;28;20047;-77
2021/09/20 10:48:18;;;;;;;9.82;8.73;;;;;22.00;99847.00;;;;5066932;28;20076;-74
2021/09/20 10:50:59;;;;;;;21.17;19.35;;;;;22.20;99811.00;;;;5066859;28;20048;-77
2021/09/20 10:53:33;;;;;;;;;;;;;22.20;99769.00;;;;5066520;28;20040;-81
2021/09/20 10:56:07;;;;;;;7.38;6.22;;;;;22.30;99746.00;;;;5065989;28;19924;-79
2021/09/20 10:58:54;;;;;;;7.90;7.25;;;;;22.20;99748.00;;;;5066863;28;20098;-78
2021/09/20 11:01:28;;;;;;;6.57;4.93;;;;;22.20;99752.00;;;;5066670;28;20127;-76
2021/09/20 11:04:09;;;;;;;8.43;5.03;;;;;22.10;99754.00;;;;5067389;28;20513;-77
2021/09/20 11:06:43;;;;;;;5.25;4.32;;;;;21.90;99762.00;;;;5066688;28;20048;-79
2021/09/20 11:09:16;;;;;;;13.77;8.73;;;;;22.10;99763.00;;;;5065162;28;20470;-77
2021/09/20 11:11:47;;;;;;;5.47;4.97;;;;;22.20;99749.00;;;;5066489;28;20040;-77
2021/09/20 11:14:36;;;;;;;;;;;;;22.40;99748.00;;;;5066896;28;20477;-79
2021/09/20 11:17:20;;;;;;;9.68;8.50;;;;;22.50;99756.00;;;;5065531;28;19925;-75
2021/09/20 11:19:55;;;;;;;15.20;7.03;;;;;22.50;99756.00;;;;5066811;28;20442;-76
2021/09/20 11:22:28;;;;;;;8.80;5.57;;;;;22.60;99758.00;;;;5065000;28;20052;-80
2021/09/20 11:25:04;;;;;;;12.63;7.40;;;;;22.70;99759.00;;;;5066104;28;20371;-79
2021/09/20 11:27:40;;;;;;;7.18;4.95;;;;;22.90;99753.00;;;;5066390;28;20078;-79
2021/09/20 11:30:25;;;;;;;13.27;7.57;;;;;23.00;99753.00;;;;5066859;28;20044;-76
2021/09/20 11:32:57;;;;;;;5.53;4.22;;;;;23.10;99745.00;;;;5066714;28;20094;-76
2021/09/20 11:35:29;;;;;;;10.00;6.40;;;;;23.10;99732.00;;;;5066027;28;20078;-78
2021/09/20 11:38:02;;;;;;;10.57;7.25;;;;;23.20;99754.00;;;;5065149;28;20049;-76
2021/09/20 11:40:34;;;;;;;11.38;8.15;;;;;23.40;99735.00;;;;5066283;28;20094;-78
2021/09/20 11:43:04;;;;;;;;;;;;;23.80;99750.00;;;;5066787;28;20044;-78
2021/09/20 11:45:38;;;;;;;22.90;20.40;;;;;24.00;99738.00;;;;5066264;28;19947;-77
2021/09/20 11:48:13;;;;;;;1.08;0.98;;;;;24.40;99727.00;;;;5065956;28;20043;-77
2021/09/20 11:50:43;;;;;;;136.30;19.05;;;;;24.60;99736.00;;;;5066126;28;20040;-78
2021/09/20 11:53:20;;;;;;;17.02;8.90;;;;;25.00;99746.00;;;;5066258;28;20102;-77
2021/09/20 11:55:51;;;;;;;5.30;4.80;;;;;25.30;99764.00;;;;5067026;28;20040;-76
2021/09/20 11:58:21;;;;;;;6.85;5.15;;;;;25.70;99748.00;;;;5065931;28;20051;-79
2021/09/20 12:00:51;;;;;;;3.10;2.85;;;;;26.10;99720.00;;;;5066100;28;20131;-77
2021/09/20 12:03:24;;;;;;;15.57;12.75;;;;;26.60;99732.00;;;;5065472;28;20675;-78
2021/09/20 12:06:00;;;;;;;8.68;2.72;;;;;26.50;99732.00;;;;5065952;28;20036;-75
2021/09/20 12:08:30;;;;;;;2.08;1.20;;;;;26.40;99725.00;;;;5066057;28;20127;-82
2021/09/20 12:11:00;;;;;;;1.65;0.93;;;;;26.30;99722.00;;;;5065845;28;20427;-80
2021/09/20 12:13:37;;;;;;;5.80;5.23;;;;;26.40;99725.00;;;;5066115;28;20127;-78
2021/09/20 12:16:09;;;;;;;40.20;15.63;;;;;26.40;99718.00;;;;5064687;28;20106;-76
2021/09/20 12:18:40;;;;;;;4.95;2.67;;;;;26.30;99727.00;;;;5065942;28;20048;-79
2021/09/20 12:21:12;;;;;;;10.40;3.45;;;;;26.60;99716.00;;;;5065814;28;20906;-77
2021/09/20 12:23:52;;;;;;;1.73;1.63;;;;;26.90;99727.00;;;;5065572;28;20052;-76
2021/09/20 12:26:24;;;;;;;2.83;2.58;;;;;26.90;99739.00;;;;5064888;28;20097;-79
2021/09/20 12:29:01;;;;;;;0.40;0.28;;;;;26.90;99740.00;;;;5065536;28;20040;-77